createdAt,value
2022-08-24T00:01:57.812Z,95.34
2022-08-24T00:04:26.880Z,95.87
2022-08-24T00:06:56.473Z,95.32
2022-08-24T00:09:24.582Z,95.93
2022-08-24T00:11:52.901Z,96.50
2022-08-24T00:14:22.406Z,96.70
2022-08-24T00:16:50.863Z,96.91
2022-08-24T00:19:19.039Z,96.19
2022-08-24T00:21:47.236Z,95.98
2022-08-24T00:24:15.784Z,95.86
2022-08-24T00:26:44.289Z,96.25
2022-08-24T00:29:12.975Z,96.34
2022-08-24T00:31:43.025Z,96.88
2022-08-24T00:34:13.434Z,97.22
2022-08-24T00:36:42.195Z,97.15
2022-08-24T00:39:10.941Z,97.08
2022-08-24T00:41:43.338Z,96.40
2022-08-24T00:44:13.914Z,97.43
2022-08-24T00:46:52.974Z,97.39
2022-08-24T00:49:26.419Z,97.91
2022-08-24T00:52:01.367Z,97.90
2022-08-24T00:54:34.860Z,98.97
2022-08-24T00:57:10.362Z,98.14
2022-08-24T00:59:43.528Z,98.56
2022-08-24T01:02:21.127Z,98.03
2022-08-24T01:04:54.595Z,98.36
2022-08-24T01:07:24.228Z,98.55
2022-08-24T01:09:54.060Z,98.99
2022-08-24T01:12:25.348Z,99.74
2022-08-24T01:14:55.299Z,99.24
2022-08-24T01:17:42.457Z,99.48
2022-08-24T01:20:12.046Z,100.00
2022-08-24T01:22:54.624Z,100.00
2022-08-24T01:25:26.557Z,100.00
2022-08-24T01:27:57.598Z,100.00
2022-08-24T01:30:30.541Z,100.00
2022-08-24T01:33:09.056Z,100.00
2022-08-24T01:35:39.017Z,100.00
2022-08-24T01:38:11.524Z,100.00
2022-08-24T01:40:46.356Z,100.00
2022-08-24T01:43:16.088Z,100.00
2022-08-24T01:45:44.785Z,100.00
2022-08-24T01:48:13.929Z,100.00
2022-08-24T01:50:42.351Z,100.00
2022-08-24T01:53:11.653Z,100.00
2022-08-24T01:55:42.551Z,100.00
2022-08-24T01:58:11.029Z,100.00
2022-08-24T02:00:43.531Z,100.00
2022-08-24T02:03:11.717Z,100.00
2022-08-24T02:05:40.793Z,100.00
2022-08-24T02:08:11.512Z,100.00
2022-08-24T02:10:41.182Z,100.00
2022-08-24T02:13:17.496Z,100.00
2022-08-24T02:15:45.736Z,100.00
2022-08-24T02:18:16.489Z,100.00
2022-08-24T02:20:45.878Z,100.00
2022-08-24T02:23:15.005Z,100.00
2022-08-24T02:25:45.212Z,100.00
2022-08-24T02:28:14.113Z,100.00
2022-08-24T02:30:42.386Z,100.00
2022-08-24T02:33:10.542Z,100.00
2022-08-24T02:35:39.011Z,100.00
2022-08-24T02:38:09.132Z,100.00
2022-08-24T02:40:39.395Z,100.00
2022-08-24T02:43:09.245Z,100.00
2022-08-24T02:45:39.962Z,100.00
2022-08-24T02:48:08.669Z,100.00
2022-08-24T02:50:40.838Z,100.00
2022-08-24T02:53:09.235Z,100.00
2022-08-24T02:55:39.413Z,100.00
2022-08-24T02:58:10.421Z,100.00
2022-08-24T03:00:41.599Z,100.00
2022-08-24T03:03:11.526Z,100.00
2022-08-24T03:05:40.511Z,100.00
2022-08-24T03:08:09.505Z,100.00
2022-08-24T03:10:37.960Z,100.00
2022-08-24T03:13:08.124Z,100.00
2022-08-24T03:15:36.728Z,100.00
2022-08-24T03:18:05.222Z,100.00
2022-08-24T03:20:33.339Z,100.00
2022-08-24T03:23:01.713Z,100.00
2022-08-24T03:25:29.985Z,100.00
2022-08-24T03:27:58.093Z,100.00
2022-08-24T03:30:28.368Z,100.00
2022-08-24T03:32:57.437Z,100.00
2022-08-24T03:35:25.719Z,100.00
2022-08-24T03:37:54.374Z,100.00
2022-08-24T03:40:24.528Z,100.00
2022-08-24T03:42:56.524Z,100.00
2022-08-24T03:45:24.741Z,100.00
2022-08-24T03:47:54.555Z,100.00
2022-08-24T03:50:24.207Z,100.00
2022-08-24T03:52:53.188Z,100.00
2022-08-24T03:55:21.820Z,100.00
2022-08-24T03:57:50.384Z,100.00
2022-08-24T04:00:18.973Z,100.00
2022-08-24T04:02:57.838Z,100.00
2022-08-24T04:05:27.814Z,100.00
2022-08-24T04:08:03.303Z,100.00
2022-08-24T04:10:31.489Z,100.00
2022-08-24T04:13:01.580Z,100.00
2022-08-24T04:15:32.264Z,100.00
2022-08-24T04:18:01.842Z,100.00
2022-08-24T04:20:29.889Z,100.00
2022-08-24T04:22:58.232Z,100.00
2022-08-24T04:25:26.557Z,100.00
2022-08-24T04:27:54.872Z,100.00
2022-08-24T04:30:24.718Z,100.00
2022-08-24T04:33:15.543Z,100.00
2022-08-24T04:35:48.300Z,100.00
2022-08-24T04:38:18.093Z,100.00
2022-08-24T04:41:00.341Z,100.00
2022-08-24T04:43:28.953Z,100.00
2022-08-24T04:45:59.786Z,100.00
2022-08-24T04:48:29.647Z,100.00
2022-08-24T04:51:03.286Z,100.00
2022-08-24T04:53:31.806Z,100.00
2022-08-24T04:56:00.495Z,100.00
2022-08-24T04:58:30.587Z,100.00
2022-08-24T05:01:00.164Z,100.00
2022-08-24T05:03:30.058Z,100.00
2022-08-24T05:05:58.303Z,100.00
2022-08-24T05:08:27.152Z,100.00
2022-08-24T05:10:55.295Z,100.00
2022-08-24T05:13:23.473Z,100.00
2022-08-24T05:15:51.611Z,100.00
2022-08-24T05:18:20.593Z,100.00
2022-08-24T05:20:50.144Z,100.00
2022-08-24T05:23:19.824Z,99.90
2022-08-24T05:25:48.628Z,99.41
2022-08-24T05:28:17.832Z,98.84
2022-08-24T05:30:46.329Z,97.89
2022-08-24T05:33:19.255Z,97.37
2022-08-24T05:35:50.307Z,97.14
2022-08-24T05:38:18.426Z,96.31
2022-08-24T05:40:46.599Z,96.09
2022-08-24T05:43:15.045Z,95.40
2022-08-24T05:45:44.884Z,94.54
2022-08-24T05:48:13.237Z,93.77
2022-08-24T05:51:17.688Z,91.78
2022-08-24T05:53:55.426Z,90.46
2022-08-24T05:59:01.630Z,88.72
2022-08-24T06:01:30.381Z,88.21
2022-08-24T06:03:59.403Z,87.63
2022-08-24T06:06:29.598Z,87.14
2022-08-24T06:08:59.580Z,85.77
2022-08-24T06:11:30.788Z,85.60
2022-08-24T06:14:03.023Z,84.75
2022-08-24T06:16:37.791Z,84.85
2022-08-24T06:19:07.502Z,83.99
2022-08-24T06:21:38.118Z,84.00
2022-08-24T06:24:07.981Z,83.65
2022-08-24T06:26:54.376Z,83.34
2022-08-24T06:29:23.420Z,83.26
2022-08-24T06:31:56.450Z,82.99
2022-08-24T06:34:27.091Z,82.65
2022-08-24T06:36:57.115Z,82.44
2022-08-24T06:39:27.448Z,82.44
2022-08-24T06:41:58.079Z,82.56
2022-08-24T06:44:34.782Z,82.10
2022-08-24T06:47:12.442Z,81.52
2022-08-24T06:49:41.420Z,81.29
2022-08-24T06:52:11.591Z,80.30
2022-08-24T06:54:40.297Z,79.50
2022-08-24T06:57:09.108Z,79.16
2022-08-24T06:59:37.274Z,79.32
2022-08-24T07:02:06.721Z,79.24
2022-08-24T07:04:35.696Z,77.82
2022-08-24T07:07:23.755Z,77.67
2022-08-24T07:09:52.001Z,76.87
2022-08-24T07:12:20.986Z,76.61
2022-08-24T07:14:49.086Z,76.27
2022-08-24T07:17:18.884Z,76.24
2022-08-24T07:19:47.955Z,75.74
2022-08-24T07:22:30.649Z,76.40
2022-08-24T07:24:58.946Z,76.16
2022-08-24T07:27:28.799Z,76.05
2022-08-24T07:30:23.138Z,75.96
2022-08-24T07:32:46.229Z,76.21
2022-08-24T07:35:14.449Z,76.38
2022-08-24T07:37:44.028Z,76.32
2022-08-24T07:40:13.651Z,76.45
2022-08-24T07:42:42.394Z,75.53
2022-08-24T07:45:11.383Z,75.04
2022-08-24T07:47:47.076Z,74.40
2022-08-24T07:50:32.998Z,74.54
2022-08-24T07:53:03.222Z,73.83
2022-08-24T07:55:34.043Z,71.02
2022-08-24T07:58:15.269Z,71.08
2022-08-24T08:00:47.754Z,70.83
2022-08-24T08:03:15.988Z,70.28
2022-08-24T08:05:45.529Z,69.81
2022-08-24T08:08:15.153Z,70.44
2022-08-24T08:10:43.585Z,70.54
2022-08-24T08:13:11.984Z,70.21
2022-08-24T08:15:40.462Z,69.74
2022-08-24T08:18:11.393Z,68.84
2022-08-24T08:20:42.943Z,68.37
2022-08-24T08:23:31.654Z,68.53
2022-08-24T08:26:17.386Z,67.73
2022-08-24T08:29:03.386Z,66.76
2022-08-24T08:31:34.422Z,66.69
2022-08-24T08:34:04.680Z,67.02
2022-08-24T08:36:33.480Z,67.25
2022-08-24T08:39:04.118Z,66.87
2022-08-24T08:42:06.364Z,67.32
2022-08-24T08:44:59.792Z,65.71
2022-08-24T08:47:52.266Z,64.76
2022-08-24T08:50:30.849Z,63.86
2022-08-24T08:53:32.861Z,61.83
2022-08-24T08:56:16.720Z,60.48
2022-08-24T08:58:59.366Z,59.69
2022-08-24T09:01:47.976Z,58.32
2022-08-24T09:04:48.965Z,57.41
2022-08-24T09:07:36.994Z,57.19
2022-08-24T09:10:34.966Z,57.45
2022-08-24T09:13:24.856Z,56.40
2022-08-24T09:16:12.154Z,56.36
2022-08-24T09:18:56.369Z,55.32
2022-08-24T09:21:47.060Z,56.03
2022-08-24T09:24:38.472Z,55.42
2022-08-24T09:27:33.070Z,55.94
2022-08-24T09:30:11.581Z,55.12
2022-08-24T09:33:00.165Z,55.34
2022-08-24T09:35:36.823Z,54.43
2022-08-24T09:38:20.283Z,53.93
2022-08-24T09:41:04.796Z,54.56
2022-08-24T09:44:04.327Z,54.28
2022-08-24T09:47:10.547Z,54.65
2022-08-24T09:50:07.069Z,52.92
2022-08-24T09:53:28.423Z,51.70
2022-08-24T09:56:06.614Z,51.00
2022-08-24T09:58:50.547Z,51.08
2022-08-24T10:01:27.109Z,51.44
2022-08-24T10:04:11.343Z,49.77
2022-08-24T10:06:51.997Z,50.30
2022-08-24T10:09:50.340Z,49.30
2022-08-24T10:12:33.055Z,49.97
2022-08-24T10:15:06.296Z,51.40
2022-08-24T10:17:46.850Z,52.16
2022-08-24T10:20:24.688Z,52.29
2022-08-24T10:23:08.005Z,52.65
2022-08-24T10:25:40.989Z,53.04
2022-08-24T10:28:40.320Z,54.08
2022-08-24T10:31:12.902Z,53.29
2022-08-24T10:33:59.204Z,53.32
2022-08-24T10:37:01.829Z,52.71
2022-08-24T10:40:01.799Z,52.45
2022-08-24T10:43:11.427Z,52.59
2022-08-24T10:46:02.283Z,53.15
2022-08-24T10:48:56.092Z,53.55
2022-08-24T10:51:36.208Z,53.96
2022-08-24T10:54:07.328Z,54.96
2022-08-24T10:56:42.644Z,55.46
2022-08-24T10:59:23.726Z,56.15
2022-08-24T11:02:11.928Z,55.96
2022-08-24T11:04:41.715Z,56.25
2022-08-24T11:07:18.529Z,56.80
2022-08-24T11:09:53.494Z,56.69
2022-08-24T11:12:29.808Z,56.49
2022-08-24T11:14:59.622Z,56.70
2022-08-24T11:17:29.617Z,55.74
2022-08-24T11:19:59.319Z,54.86
2022-08-24T11:22:39.513Z,55.62
2022-08-24T11:25:16.102Z,55.35
2022-08-24T11:27:48.029Z,55.80
2022-08-24T11:30:25.277Z,56.07
2022-08-24T11:32:56.498Z,56.44
2022-08-24T11:35:27.315Z,56.13
2022-08-24T11:37:58.032Z,56.08
2022-08-24T11:40:31.139Z,59.28
2022-08-24T11:43:22.598Z,63.78
2022-08-24T11:46:08.035Z,70.13
2022-08-24T11:48:49.012Z,73.01
2022-08-24T11:51:28.802Z,75.59
2022-08-24T11:54:04.634Z,77.21
2022-08-24T11:56:39.663Z,78.25
2022-08-24T11:59:17.893Z,78.86
2022-08-24T12:01:51.330Z,79.55
2022-08-24T12:04:37.587Z,80.05
2022-08-24T12:07:20.805Z,80.39
2022-08-24T12:10:12.523Z,80.26
2022-08-24T12:12:48.247Z,79.22
2022-08-24T12:15:26.295Z,77.15
2022-08-24T12:18:01.494Z,75.29
2022-08-24T12:20:34.501Z,73.23
2022-08-24T12:23:07.754Z,71.31
2022-08-24T12:25:55.273Z,69.93
2022-08-24T12:28:29.225Z,69.53
2022-08-24T12:31:04.979Z,67.26
2022-08-24T12:33:39.651Z,65.63
2022-08-24T12:36:18.902Z,66.50
2022-08-24T12:38:52.067Z,67.50
2022-08-24T12:41:28.349Z,67.44
2022-08-24T12:44:04.201Z,67.43
2022-08-24T12:46:32.529Z,68.64
2022-08-24T12:49:06.229Z,70.35
2022-08-24T12:51:52.190Z,70.41
2022-08-24T12:54:39.627Z,72.20
2022-08-24T12:57:38.928Z,71.99
2022-08-24T13:00:17.684Z,72.43
2022-08-24T13:02:55.183Z,71.91
2022-08-24T13:05:23.590Z,71.22
2022-08-24T13:07:55.002Z,71.13
2022-08-24T13:10:43.391Z,75.56
2022-08-24T13:13:15.611Z,80.20
2022-08-24T13:16:03.869Z,83.75
2022-08-24T13:19:19.836Z,84.97
2022-08-24T13:21:52.586Z,85.65
2022-08-24T13:24:59.180Z,86.59
2022-08-24T13:28:01.505Z,88.47
2022-08-24T13:30:36.518Z,88.03
2022-08-24T13:33:10.219Z,88.03
2022-08-24T13:35:55.572Z,84.70
2022-08-24T13:38:52.509Z,85.75
2022-08-24T13:41:34.831Z,88.07
2022-08-24T13:44:11.350Z,88.97
2022-08-24T13:46:50.756Z,90.36
2022-08-24T13:49:34.245Z,90.75
2022-08-24T13:52:14.564Z,92.31
2022-08-24T13:54:54.011Z,92.43
2022-08-24T13:57:35.698Z,87.03
2022-08-24T14:00:18.796Z,84.91
2022-08-24T14:03:03.658Z,92.28
2022-08-24T14:05:38.514Z,100.00
2022-08-24T14:08:23.547Z,100.00
2022-08-24T14:11:00.262Z,100.00
2022-08-24T14:13:45.136Z,100.00
2022-08-24T14:16:51.106Z,100.00
2022-08-24T14:19:26.144Z,100.00
2022-08-24T14:22:02.198Z,100.00
2022-08-24T14:24:42.510Z,100.00
2022-08-24T14:27:39.766Z,100.00
2022-08-24T14:30:43.198Z,100.00
2022-08-24T14:33:20.292Z,100.00
2022-08-24T14:36:04.573Z,100.00
2022-08-24T14:38:52.901Z,100.00
2022-08-24T14:41:56.197Z,100.00
2022-08-24T14:44:54.194Z,100.00
2022-08-24T14:47:42.758Z,100.00
2022-08-24T14:50:17.283Z,100.00
2022-08-24T14:53:08.307Z,100.00
2022-08-24T14:55:48.248Z,100.00
2022-08-24T14:58:30.219Z,100.00
2022-08-24T15:01:26.396Z,100.00
2022-08-24T15:04:14.210Z,100.00
2022-08-24T15:06:48.366Z,100.00
2022-08-24T15:09:22.716Z,100.00
2022-08-24T15:11:55.405Z,100.00
2022-08-24T15:14:37.476Z,100.00
2022-08-24T15:17:10.815Z,100.00
2022-08-24T15:19:50.581Z,100.00
2022-08-24T15:22:27.450Z,100.00
2022-08-24T15:25:03.729Z,100.00
2022-08-24T15:27:44.004Z,100.00
2022-08-24T15:30:24.270Z,100.00
2022-08-24T15:32:56.014Z,100.00
2022-08-24T15:35:29.831Z,100.00
2022-08-24T15:37:58.980Z,100.00
2022-08-24T15:40:30.525Z,100.00
2022-08-24T15:43:04.080Z,100.00
2022-08-24T15:45:34.562Z,100.00
2022-08-24T15:48:05.468Z,100.00
2022-08-24T15:50:36.891Z,100.00
2022-08-24T15:53:11.413Z,100.00
2022-08-24T15:55:41.710Z,100.00
2022-08-24T15:58:28.005Z,100.00
2022-08-24T16:01:19.613Z,100.00
2022-08-24T16:03:52.191Z,100.00
2022-08-24T16:06:36.338Z,100.00
2022-08-24T16:09:10.315Z,100.00
2022-08-24T16:11:41.236Z,100.00
2022-08-24T16:14:16.335Z,100.00
2022-08-24T16:16:46.815Z,100.00
2022-08-24T16:19:26.086Z,100.00
2022-08-24T16:22:01.078Z,100.00
2022-08-24T16:24:36.018Z,100.00
2022-08-24T16:27:08.268Z,100.00
2022-08-24T16:29:52.736Z,100.00
2022-08-24T16:32:32.345Z,100.00
2022-08-24T16:35:18.011Z,100.00
2022-08-24T16:37:46.216Z,100.00
2022-08-24T16:40:14.405Z,100.00
2022-08-24T16:42:43.214Z,100.00
2022-08-24T16:45:17.381Z,100.00
2022-08-24T16:47:46.913Z,100.00
2022-08-24T16:50:16.733Z,100.00
2022-08-24T16:52:45.261Z,100.00
2022-08-24T16:55:14.597Z,100.00
2022-08-24T16:57:43.406Z,100.00
2022-08-24T17:00:17.787Z,100.00
2022-08-24T17:02:48.287Z,100.00
2022-08-24T17:05:17.910Z,100.00
2022-08-24T17:07:46.399Z,100.00
2022-08-24T17:10:16.847Z,100.00
2022-08-24T17:12:45.058Z,100.00
2022-08-24T17:15:16.198Z,100.00
2022-08-24T17:17:49.386Z,100.00
2022-08-24T17:20:17.635Z,100.00
2022-08-24T17:22:45.829Z,100.00
2022-08-24T17:25:14.202Z,100.00
2022-08-24T17:27:42.801Z,100.00
2022-08-24T17:30:12.181Z,100.00
2022-08-24T17:32:41.740Z,100.00
2022-08-24T17:35:10.591Z,100.00
2022-08-24T17:37:38.775Z,100.00
2022-08-24T17:40:11.650Z,100.00
2022-08-24T17:42:50.814Z,100.00
2022-08-24T17:45:20.404Z,100.00
2022-08-24T17:47:50.597Z,100.00
2022-08-24T17:50:19.880Z,100.00
2022-08-24T17:52:48.488Z,100.00
2022-08-24T17:55:25.027Z,100.00
2022-08-24T17:57:53.871Z,100.00
2022-08-24T18:00:22.302Z,100.00
2022-08-24T18:02:51.922Z,100.00
2022-08-24T18:05:20.498Z,100.00
2022-08-24T18:07:54.210Z,100.00
2022-08-24T18:10:25.661Z,100.00
2022-08-24T18:12:54.313Z,100.00
2022-08-24T18:15:22.881Z,100.00
2022-08-24T18:18:06.867Z,100.00
2022-08-24T18:20:39.904Z,100.00
2022-08-24T18:23:11.341Z,100.00
2022-08-24T18:25:45.485Z,100.00
2022-08-24T18:28:15.137Z,100.00
2022-08-24T18:30:44.091Z,100.00
2022-08-24T18:33:13.860Z,100.00
2022-08-24T18:35:42.108Z,100.00
2022-08-24T18:38:10.382Z,100.00
2022-08-24T18:40:38.953Z,100.00
2022-08-24T18:43:08.249Z,100.00
2022-08-24T18:45:37.069Z,100.00
2022-08-24T18:48:05.907Z,100.00
2022-08-24T18:50:40.127Z,100.00
2022-08-24T18:53:12.491Z,100.00
2022-08-24T18:55:42.553Z,100.00
2022-08-24T18:58:10.996Z,100.00
2022-08-24T19:00:41.123Z,100.00
2022-08-24T19:03:12.546Z,100.00
2022-08-24T19:05:45.436Z,100.00
2022-08-24T19:08:16.408Z,100.00
2022-08-24T19:10:44.682Z,100.00
2022-08-24T19:13:18.261Z,100.00
2022-08-24T19:15:47.625Z,100.00
2022-08-24T19:18:17.493Z,100.00
2022-08-24T19:20:50.177Z,100.00
2022-08-24T19:23:22.972Z,100.00
2022-08-24T19:25:52.031Z,100.00
2022-08-24T19:28:21.485Z,100.00
2022-08-24T19:30:52.783Z,100.00
2022-08-24T19:33:26.052Z,100.00
2022-08-24T19:35:56.614Z,100.00
2022-08-24T19:38:26.282Z,100.00
2022-08-24T19:40:56.542Z,100.00
2022-08-24T19:43:26.664Z,100.00
2022-08-24T19:46:08.931Z,100.00
2022-08-24T19:48:40.690Z,100.00
2022-08-24T19:51:14.058Z,100.00
2022-08-24T19:53:43.715Z,100.00
2022-08-24T19:56:12.468Z,100.00
2022-08-24T19:58:46.633Z,100.00
2022-08-24T20:01:20.223Z,100.00
2022-08-24T20:03:49.277Z,100.00
2022-08-24T20:06:21.272Z,100.00
2022-08-24T20:08:49.661Z,100.00
2022-08-24T20:11:19.000Z,100.00
2022-08-24T20:13:47.541Z,100.00
2022-08-24T20:16:20.100Z,100.00
2022-08-24T20:18:48.589Z,100.00
2022-08-24T20:21:18.293Z,100.00
2022-08-24T20:23:46.450Z,100.00
2022-08-24T20:26:15.099Z,100.00
2022-08-24T20:28:47.705Z,100.00
2022-08-24T20:31:17.347Z,100.00
2022-08-24T20:33:45.720Z,100.00
2022-08-24T20:36:24.001Z,100.00
2022-08-24T20:38:53.023Z,100.00
2022-08-24T20:41:21.526Z,100.00
2022-08-24T20:43:49.860Z,100.00
2022-08-24T20:46:18.098Z,100.00
2022-08-24T20:48:55.731Z,100.00
2022-08-24T20:51:25.674Z,100.00
2022-08-24T20:53:54.028Z,100.00
2022-08-24T20:56:27.742Z,100.00
2022-08-24T20:59:00.165Z,100.00
2022-08-24T21:01:28.379Z,100.00
2022-08-24T21:04:00.321Z,100.00
2022-08-24T21:06:32.994Z,100.00
2022-08-24T21:09:01.715Z,100.00
2022-08-24T21:11:33.049Z,100.00
2022-08-24T21:14:02.460Z,100.00
2022-08-24T21:16:31.071Z,100.00
2022-08-24T21:19:01.244Z,100.00
2022-08-24T21:21:29.627Z,100.00
2022-08-24T21:23:59.249Z,100.00
2022-08-24T21:26:31.607Z,100.00
2022-08-24T21:29:00.093Z,100.00
2022-08-24T21:31:29.273Z,100.00
2022-08-24T21:34:14.795Z,100.00
2022-08-24T21:36:43.563Z,100.00
2022-08-24T21:39:13.077Z,100.00
2022-08-24T21:41:41.502Z,100.00
2022-08-24T21:44:09.653Z,100.00
2022-08-24T21:46:40.462Z,100.00
2022-08-24T21:49:12.282Z,100.00
2022-08-24T21:51:40.720Z,100.00
2022-08-24T21:54:09.558Z,100.00
2022-08-24T21:56:39.267Z,100.00
2022-08-24T21:59:08.423Z,100.00
2022-08-24T22:01:38.750Z,100.00
2022-08-24T22:04:08.063Z,100.00
2022-08-24T22:06:36.643Z,100.00
2022-08-24T22:09:06.974Z,100.00
2022-08-24T22:11:35.483Z,100.00
2022-08-24T22:14:05.385Z,100.00
2022-08-24T22:16:36.875Z,100.00
2022-08-24T22:19:05.815Z,100.00
2022-08-24T22:21:36.032Z,100.00
2022-08-24T22:24:05.080Z,100.00
2022-08-24T22:26:33.518Z,100.00
2022-08-24T22:29:02.474Z,100.00
2022-08-24T22:31:35.013Z,100.00
2022-08-24T22:34:07.092Z,100.00
2022-08-24T22:36:35.776Z,100.00
2022-08-24T22:39:05.659Z,100.00
2022-08-24T22:41:33.897Z,100.00
2022-08-24T22:44:20.349Z,100.00
2022-08-24T22:46:51.919Z,100.00
2022-08-24T22:49:21.418Z,100.00
2022-08-24T22:51:50.048Z,100.00
2022-08-24T22:54:19.042Z,100.00
2022-08-24T22:56:49.507Z,100.00
2022-08-24T22:59:19.536Z,100.00
2022-08-24T23:01:51.385Z,100.00
2022-08-24T23:04:23.390Z,100.00
2022-08-24T23:06:51.694Z,100.00
2022-08-24T23:09:20.118Z,100.00
2022-08-24T23:11:48.481Z,100.00
2022-08-24T23:14:16.918Z,100.00
2022-08-24T23:16:47.893Z,100.00
2022-08-24T23:19:36.164Z,100.00
2022-08-24T23:22:05.291Z,100.00
2022-08-24T23:24:34.145Z,100.00
2022-08-24T23:27:03.147Z,100.00
2022-08-24T23:29:32.054Z,100.00
2022-08-24T23:32:00.583Z,100.00
2022-08-24T23:34:30.785Z,100.00
2022-08-24T23:36:59.239Z,100.00
2022-08-24T23:39:28.551Z,100.00
2022-08-24T23:41:56.711Z,100.00
2022-08-24T23:44:28.507Z,100.00
2022-08-24T23:46:58.255Z,100.00
2022-08-24T23:49:30.849Z,100.00
2022-08-24T23:51:59.827Z,100.00
2022-08-24T23:54:28.565Z,100.00
2022-08-24T23:56:57.701Z,100.00
2022-08-24T23:59:29.409Z,100.00
